Time,TemperatureF,DewpointF,PressureIn,WindDirection,WindDirectionDegrees,WindSpeedMPH,WindSpeedGustMPH,Humidity,HourlyPrecipIn,Conditions,Clouds,dailyrainin,SoftwareType,DateUTC
2013-07-20 04:24:00,62.6,57.0,29.68,North,-999,0.0,0.0,82,0.00,,,-99.99,FreeWX 2.04,2013-07-20 08:24:00,
2013-07-20 05:53:00,61.9,57.0,29.68,North,-999,0.0,0.0,84,0.00,,,-99.99,FreeWX 2.04,2013-07-20 09:53:00,
2013-07-20 05:59:00,61.9,57.0,29.68,North,-999,0.0,0.0,84,0.00,,,-99.99,FreeWX 2.04,2013-07-20 09:59:00,
2013-07-20 06:04:00,61.9,57.0,29.68,North,-999,0.0,0.0,84,0.00,,,-99.99,FreeWX 2.04,2013-07-20 10:04:00,
2013-07-20 06:09:00,61.9,57.0,29.68,North,-999,0.0,0.0,84,0.00,,,-99.99,FreeWX 2.04,2013-07-20 10:09:00,
2013-07-20 06:14:00,61.7,56.8,29.68,North,-999,0.0,0.0,84,0.00,,,-99.99,FreeWX 2.04,2013-07-20 10:14:00,
2013-07-20 06:19:00,61.9,57.0,29.68,North,-999,0.0,0.0,84,0.00,,,-99.99,FreeWX 2.04,2013-07-20 10:19:00,
2013-07-20 06:24:00,61.9,57.0,29.68,North,-999,0.0,0.0,84,0.00,,,-99.99,FreeWX 2.04,2013-07-20 10:24:00,
2013-07-20 06:29:00,61.9,57.0,29.68,North,-999,0.0,0.0,84,0.00,,,-99.99,FreeWX 2.04,2013-07-20 10:29:00,
2013-07-20 06:34:00,61.9,57.0,29.68,North,-999,0.0,0.0,84,0.00,,,-99.99,FreeWX 2.04,2013-07-20 10:34:00,
2013-07-20 06:39:00,61.9,57.4,29.68,North,-999,0.0,0.0,85,0.00,,,-99.99,FreeWX 2.04,2013-07-20 10:39:00,
2013-07-20 06:44:00,62.1,57.6,29.68,North,-999,0.0,0.0,85,0.00,,,-99.99,FreeWX 2.04,2013-07-20 10:44:00,
2013-07-20 06:49:00,62.1,57.6,29.68,North,-999,0.0,0.0,85,0.00,,,-99.99,FreeWX 2.04,2013-07-20 10:49:00,
2013-07-20 06:54:00,62.1,57.6,29.68,North,-999,0.0,0.0,85,0.00,,,-99.99,FreeWX 2.04,2013-07-20 10:54:00,
2013-07-20 06:59:00,62.1,57.6,29.68,North,-999,0.0,0.0,85,0.00,,,-99.99,FreeWX 2.04,2013-07-20 10:59:00,
2013-07-20 07:04:00,62.1,57.6,29.68,North,-999,0.0,0.0,85,0.00,,,-99.99,FreeWX 2.04,2013-07-20 11:04:00,
2013-07-20 07:09:00,62.2,57.7,29.71,North,-999,0.0,0.0,85,0.00,,,-99.99,FreeWX 2.04,2013-07-20 11:09:00,
2013-07-20 07:14:00,62.2,57.7,29.71,North,-999,0.0,0.0,85,0.00,,,-99.99,FreeWX 2.04,2013-07-20 11:14:00,
2013-07-20 07:19:00,62.4,58.1,29.71,North,-999,0.0,0.0,86,0.00,,,-99.99,FreeWX 2.04,2013-07-20 11:19:00,
2013-07-20 07:24:00,62.6,58.3,29.71,North,-999,0.0,0.0,86,0.00,,,-99.99,FreeWX 2.04,2013-07-20 11:24:00,
2013-07-20 07:29:00,62.6,58.3,29.71,North,-999,0.0,0.0,86,0.00,,,-99.99,FreeWX 2.04,2013-07-20 11:29:00,
2013-07-20 07:34:00,63.0,58.6,29.71,North,-999,0.0,0.0,86,0.00,,,-99.99,FreeWX 2.04,2013-07-20 11:34:00,
2013-07-20 07:39:00,63.1,58.8,29.71,North,-999,0.0,0.0,86,0.00,,,-99.99,FreeWX 2.04,2013-07-20 11:39:00,
2013-07-20 07:44:00,63.1,58.8,29.71,North,-999,0.0,0.0,86,0.00,,,-99.99,FreeWX 2.04,2013-07-20 11:44:00,
2013-07-20 07:49:00,63.5,59.2,29.71,North,-999,0.0,0.0,86,0.00,,,-99.99,FreeWX 2.04,2013-07-20 11:49:00,
2013-07-20 07:54:00,63.9,59.5,29.71,North,-999,0.0,0.0,86,0.00,,,-99.99,FreeWX 2.04,2013-07-20 11:54:00,
2013-07-20 07:59:00,64.2,60.3,29.71,North,-999,0.0,0.0,87,0.00,,,-99.99,FreeWX 2.04,2013-07-20 11:59:00,
2013-07-20 08:04:00,64.4,60.4,29.71,North,-999,0.0,0.0,87,0.00,,,-99.99,FreeWX 2.04,2013-07-20 12:04:00,
2013-07-20 08:09:00,64.8,60.8,29.71,North,-999,0.0,0.0,87,0.00,,,-99.99,FreeWX 2.04,2013-07-20 12:09:00,
2013-07-20 08:14:00,65.5,61.5,29.71,North,-999,0.0,0.0,87,0.00,,,-99.99,FreeWX 2.04,2013-07-20 12:14:00,
2013-07-20 08:19:00,65.7,61.7,29.71,North,-999,0.0,0.0,87,0.00,,,-99.99,FreeWX 2.04,2013-07-20 12:19:00,
2013-07-20 08:24:00,65.8,61.9,29.71,North,-999,0.0,0.0,87,0.00,,,-99.99,FreeWX 2.04,2013-07-20 12:24:00,
2013-07-20 08:29:00,66.2,62.2,29.71,North,-999,0.0,0.0,87,0.00,,,-99.99,FreeWX 2.04,2013-07-20 12:29:00,
2013-07-20 08:34:00,66.2,61.9,29.71,North,-999,0.0,0.0,86,0.00,,,-99.99,FreeWX 2.04,2013-07-20 12:34:00,
2013-07-20 08:39:00,66.9,63.0,29.74,North,-999,0.0,0.0,87,0.00,,,-99.99,FreeWX 2.04,2013-07-20 12:39:00,
2013-07-20 08:44:00,66.9,63.0,29.74,North,-999,0.0,3.6,87,0.00,,,-99.99,FreeWX 2.04,2013-07-20 12:44:00,
2013-07-20 08:49:00,67.1,62.8,29.74,North,-999,0.0,0.0,86,0.00,,,-99.99,FreeWX 2.04,2013-07-20 12:49:00,
2013-07-20 08:54:00,67.3,63.0,29.74,North,-999,0.0,0.0,86,0.00,,,-99.99,FreeWX 2.04,2013-07-20 12:54:00,
2013-07-20 08:59:00,68.0,64.0,29.74,North,-999,0.0,0.0,87,0.00,,,-99.99,FreeWX 2.04,2013-07-20 12:59:00,
2013-07-20 09:04:00,69.8,66.0,29.74,North,-999,0.0,0.0,88,0.00,,,-99.99,FreeWX 2.04,2013-07-20 13:04:00,
2013-07-20 09:09:00,71.6,67.8,29.74,North,-999,0.0,0.0,88,0.00,,,-99.99,FreeWX 2.04,2013-07-20 13:09:00,
2013-07-20 09:14:00,72.0,68.5,29.74,North,-999,0.0,0.0,89,0.00,,,-99.99,FreeWX 2.04,2013-07-20 13:14:00,
2013-07-20 09:19:00,71.8,68.0,29.74,North,-999,0.0,3.6,88,0.00,,,-99.99,FreeWX 2.04,2013-07-20 13:19:00,
2013-07-20 09:24:00,72.5,69.1,29.74,North,-999,0.0,3.1,89,0.00,,,-99.99,FreeWX 2.04,2013-07-20 13:24:00,
2013-07-20 09:29:00,73.8,70.0,29.74,North,-999,0.0,2.7,88,0.00,,,-99.99,FreeWX 2.04,2013-07-20 13:29:00,
2013-07-20 09:34:00,75.2,71.4,29.74,North,-999,0.0,2.7,88,0.00,,,-99.99,FreeWX 2.04,2013-07-20 13:34:00,
2013-07-20 09:39:00,77.0,73.2,29.74,North,-999,0.0,0.0,88,0.00,,,-99.99,FreeWX 2.04,2013-07-20 13:39:00,
2013-07-20 09:44:00,77.4,73.6,29.74,North,-999,0.0,4.9,88,0.00,,,-99.99,FreeWX 2.04,2013-07-20 13:44:00,
2013-07-20 09:49:00,77.9,74.1,29.74,North,-999,0.0,4.0,88,0.00,,,-99.99,FreeWX 2.04,2013-07-20 13:49:00,
2013-07-20 09:54:00,77.9,73.4,29.74,North,-999,0.0,4.5,86,0.00,,,-99.99,FreeWX 2.04,2013-07-20 13:54:00,
2013-07-20 09:59:00,78.3,73.0,29.74,North,-999,0.0,0.0,84,0.00,,,-99.99,FreeWX 2.04,2013-07-20 13:59:00,
2013-07-20 10:04:00,77.0,70.3,29.74,North,-999,0.0,0.0,80,0.00,,,-99.99,FreeWX 2.04,2013-07-20 14:04:00,
2013-07-20 10:09:00,74.7,65.5,29.74,North,-999,0.0,4.0,73,0.00,,,-99.99,FreeWX 2.04,2013-07-20 14:09:00,
2013-07-20 10:14:00,73.6,63.1,29.74,North,-999,0.0,0.0,70,0.00,,,-99.99,FreeWX 2.04,2013-07-20 14:14:00,
2013-07-20 10:19:00,72.7,61.5,29.74,North,-999,0.0,3.1,68,0.00,,,-99.99,FreeWX 2.04,2013-07-20 14:19:00,
2013-07-20 10:24:00,72.5,61.3,29.74,North,-999,0.0,0.0,68,0.00,,,-99.99,FreeWX 2.04,2013-07-20 14:24:00,
2013-07-20 10:29:00,73.9,63.9,29.74,North,-999,0.0,0.0,71,0.00,,,-99.99,FreeWX 2.04,2013-07-20 14:29:00,
2013-07-20 10:34:00,76.8,67.1,29.74,North,-999,0.0,4.5,72,0.00,,,-99.99,FreeWX 2.04,2013-07-20 14:34:00,
2013-07-20 10:39:00,76.3,59.9,29.74,North,-999,0.0,4.9,57,0.00,,,-99.99,FreeWX 2.04,2013-07-20 14:39:00,
2013-07-20 10:44:00,76.1,57.7,29.74,North,-999,0.0,0.0,53,0.00,,,-99.99,FreeWX 2.04,2013-07-20 14:44:00,
2013-07-20 10:49:00,76.8,57.9,29.74,North,-999,0.0,4.0,52,0.00,,,-99.99,FreeWX 2.04,2013-07-20 14:49:00,
2013-07-20 10:54:00,78.8,59.7,29.74,North,-999,0.0,4.0,52,0.00,,,-99.99,FreeWX 2.04,2013-07-20 14:54:00,
2013-07-20 10:59:00,79.3,54.1,29.74,North,-999,0.0,5.8,42,0.00,,,-99.99,FreeWX 2.04,2013-07-20 14:59:00,
2013-07-20 11:04:00,80.8,49.8,29.74,North,-999,0.0,4.0,34,0.00,,,-99.99,FreeWX 2.04,2013-07-20 15:04:00,
2013-07-20 11:09:00,81.1,47.7,29.74,NW,319,1.0,4.5,31,0.00,,,-99.99,FreeWX 2.04,2013-07-20 15:09:00,
2013-07-20 11:14:00,81.9,46.4,29.74,North,-999,0.0,4.5,29,0.00,,,-99.99,FreeWX 2.04,2013-07-20 15:14:00,
2013-07-20 11:19:00,83.3,44.8,29.74,WNW,288,1.0,4.9,26,0.00,,,-99.99,FreeWX 2.04,2013-07-20 15:19:00,
2013-07-20 11:24:00,84.7,42.8,29.74,North,-999,0.0,4.0,23,0.00,,,-99.99,FreeWX 2.04,2013-07-20 15:24:00,
2013-07-20 11:29:00,85.3,39.6,29.74,North,-999,0.0,4.9,20,0.00,,,-99.99,FreeWX 2.04,2013-07-20 15:29:00,
2013-07-20 11:34:00,86.0,40.3,29.74,South,184,1.0,4.5,20,0.00,,,-99.99,FreeWX 2.04,2013-07-20 15:34:00,
2013-07-20 11:39:00,87.6,41.5,29.74,North,-999,0.0,4.0,20,0.00,,,-99.99,FreeWX 2.04,2013-07-20 15:39:00,
2013-07-20 11:44:00,87.6,41.5,29.74,North,-999,0.0,3.6,20,0.00,,,-99.99,FreeWX 2.04,2013-07-20 15:44:00,
2013-07-20 11:49:00,86.7,39.6,29.74,North,-999,0.0,5.4,19,0.00,,,-99.99,FreeWX 2.04,2013-07-20 15:49:00,
2013-07-20 11:54:00,86.5,39.4,29.74,WNW,284,1.0,5.8,19,0.00,,,-99.99,FreeWX 2.04,2013-07-20 15:54:00,
2013-07-20 11:59:00,86.5,40.6,29.74,WSW,248,1.0,4.5,20,0.00,,,-99.99,FreeWX 2.04,2013-07-20 15:59:00,
2013-07-20 12:04:00,86.5,39.4,29.74,WSW,247,1.0,4.9,19,0.00,,,-99.99,FreeWX 2.04,2013-07-20 16:04:00,
2013-07-20 12:09:00,87.1,39.7,29.74,WSW,249,2.0,6.3,19,0.00,,,-99.99,FreeWX 2.04,2013-07-20 16:09:00,
2013-07-20 12:14:00,87.1,39.7,29.74,WSW,240,1.0,5.4,19,0.00,,,-99.99,FreeWX 2.04,2013-07-20 16:14:00,
2013-07-20 12:19:00,87.3,38.5,29.74,WSW,244,2.0,6.7,18,0.00,,,-99.99,FreeWX 2.04,2013-07-20 16:19:00,
2013-07-20 12:24:00,88.9,38.5,29.74,South,172,1.0,4.9,17,0.00,,,-99.99,FreeWX 2.04,2013-07-20 16:24:00,
2013-07-20 12:29:00,89.6,39.0,29.74,North,-999,0.0,6.3,17,0.00,,,-99.99,FreeWX 2.04,2013-07-20 16:29:00,
2013-07-20 12:34:00,89.6,35.8,29.74,WSW,251,1.0,6.3,15,0.00,,,-99.99,FreeWX 2.04,2013-07-20 16:34:00,
2013-07-20 12:39:00,87.8,34.3,29.74,WSW,250,2.0,6.3,15,0.00,,,-99.99,FreeWX 2.04,2013-07-20 16:39:00,
2013-07-20 12:44:00,85.5,37.0,29.74,WSW,240,1.0,5.4,18,0.00,,,-99.99,FreeWX 2.04,2013-07-20 16:44:00,
2013-07-20 12:49:00,83.1,37.9,29.74,WSW,244,1.0,6.7,20,0.00,,,-99.99,FreeWX 2.04,2013-07-20 16:49:00,
2013-07-20 12:54:00,83.3,37.9,29.74,WSW,247,1.0,5.4,20,0.00,,,-99.99,FreeWX 2.04,2013-07-20 16:54:00,
2013-07-20 12:59:00,82.4,37.2,29.74,West,263,1.0,6.3,20,0.00,,,-99.99,FreeWX 2.04,2013-07-20 16:59:00,
2013-07-20 13:04:00,81.9,38.1,29.74,North,-999,0.0,0.0,21,0.00,,,-99.99,FreeWX 2.04,2013-07-20 17:04:00,
2013-07-20 13:09:00,85.6,38.7,29.74,North,-999,0.0,3.6,19,0.00,,,-99.99,FreeWX 2.04,2013-07-20 17:09:00,
2013-07-20 13:14:00,88.9,38.5,29.74,North,-999,0.0,4.0,17,0.00,,,-99.99,FreeWX 2.04,2013-07-20 17:14:00,
2013-07-20 13:19:00,90.5,34.7,29.74,North,-999,0.0,5.8,14,0.00,,,-99.99,FreeWX 2.04,2013-07-20 17:19:00,
2013-07-20 13:24:00,88.3,31.3,29.74,South,188,1.0,5.8,13,0.00,,,-99.99,FreeWX 2.04,2013-07-20 17:24:00,
2013-07-20 13:29:00,87.8,30.7,29.74,SSE,152,2.0,8.3,13,0.00,,,-99.99,FreeWX 2.04,2013-07-20 17:29:00,
2013-07-20 13:34:00,89.1,29.8,29.74,SSE,148,2.0,4.5,12,0.00,,,-99.99,FreeWX 2.04,2013-07-20 17:34:00,
2013-07-20 13:39:00,90.3,30.7,29.74,South,183,1.0,7.8,12,0.00,,,-99.99,FreeWX 2.04,2013-07-20 17:39:00,
2013-07-20 13:44:00,91.2,31.5,29.74,SSE,162,1.0,5.4,12,0.00,,,-99.99,FreeWX 2.04,2013-07-20 17:44:00,
2013-07-20 13:49:00,91.2,31.5,29.74,SE,140,2.0,6.7,12,0.00,,,-99.99,FreeWX 2.04,2013-07-20 17:49:00,
2013-07-20 13:54:00,90.7,31.1,29.74,ESE,117,3.0,6.7,12,0.00,,,-99.99,FreeWX 2.04,2013-07-20 17:54:00,
2013-07-20 13:59:00,87.6,34.2,29.74,East,98,4.0,10.1,15,0.00,,,-99.99,FreeWX 2.04,2013-07-20 17:59:00,
2013-07-20 14:04:00,86.7,39.6,29.74,East,92,3.0,5.8,19,0.00,,,-99.99,FreeWX 2.04,2013-07-20 18:04:00,
2013-07-20 14:09:00,86.5,39.4,29.74,East,101,2.0,7.8,19,0.00,,,-99.99,FreeWX 2.04,2013-07-20 18:09:00,
2013-07-20 14:14:00,86.7,39.6,29.74,ESE,106,2.0,4.5,19,0.00,,,-99.99,FreeWX 2.04,2013-07-20 18:14:00,
2013-07-20 14:19:00,86.4,39.2,29.74,East,98,1.0,4.5,19,0.00,,,-99.99,FreeWX 2.04,2013-07-20 18:19:00,
2013-07-20 14:24:00,83.8,35.8,29.76,East,94,3.0,7.4,18,0.00,,,-99.99,FreeWX 2.04,2013-07-20 18:24:00,
2013-07-20 14:40:00,79.0,35.8,29.76,East,101,1.0,5.8,21,0.00,,,-99.99,FreeWX 2.04,2013-07-20 18:40:00,
2013-07-20 14:45:00,78.1,34.9,29.76,ESE,115,1.0,4.9,21,0.00,,,-99.99,FreeWX 2.04,2013-07-20 18:45:00,
2013-07-20 14:50:00,77.2,35.4,29.76,ESE,114,1.0,4.0,22,0.00,,,-99.99,FreeWX 2.04,2013-07-20 18:50:00,
2013-07-20 14:55:00,78.8,37.9,29.76,East,93,2.0,6.9,23,0.00,,,-99.99,FreeWX 2.04,2013-07-20 18:55:00,
2013-07-20 15:00:00,81.0,37.4,29.76,East,101,2.0,6.3,21,0.00,,,-99.99,FreeWX 2.04,2013-07-20 19:00:00,
2013-07-20 15:05:00,82.6,36.1,29.76,ESE,105,3.0,8.3,19,0.00,,,-99.99,FreeWX 2.04,2013-07-20 19:05:00,
2013-07-20 15:10:00,81.3,36.3,29.76,ESE,103,2.0,5.4,20,0.00,,,-99.99,FreeWX 2.04,2013-07-20 19:10:00,
2013-07-20 15:15:00,81.1,36.3,29.76,ESE,123,2.0,4.9,20,0.00,,,-99.99,FreeWX 2.04,2013-07-20 19:15:00,
2013-07-20 15:20:00,79.5,36.1,29.76,SE,138,2.0,4.5,21,0.00,,,-99.99,FreeWX 2.04,2013-07-20 19:20:00,
2013-07-20 15:25:00,78.4,35.2,29.76,SE,130,1.0,5.4,21,0.00,,,-99.99,FreeWX 2.04,2013-07-20 19:25:00,
2013-07-20 15:30:00,78.1,36.1,29.76,SE,128,1.0,4.9,22,0.00,,,-99.99,FreeWX 2.04,2013-07-20 19:30:00,
2013-07-20 15:35:00,78.4,36.5,29.76,ESE,121,1.0,5.8,22,0.00,,,-99.99,FreeWX 2.04,2013-07-20 19:35:00,
2013-07-20 15:40:00,78.1,34.9,29.76,ESE,121,2.0,7.8,21,0.00,,,-99.99,FreeWX 2.04,2013-07-20 19:40:00,
2013-07-20 15:45:00,77.5,38.8,29.76,SE,130,2.0,4.9,25,0.00,,,-99.99,FreeWX 2.04,2013-07-20 19:45:00,
2013-07-20 15:55:00,78.1,36.1,29.76,East,92,4.0,7.4,22,0.00,,,-99.99,FreeWX 2.04,2013-07-20 19:55:00,
2013-07-20 16:00:00,78.1,37.2,29.76,East,100,3.0,6.7,23,0.00,,,-99.99,FreeWX 2.04,2013-07-20 20:00:00,
2013-07-20 16:05:00,77.0,37.4,29.76,ESE,105,1.0,6.9,24,0.00,,,-99.99,FreeWX 2.04,2013-07-20 20:05:00,
2013-07-20 16:10:00,77.4,37.8,29.76,ESE,105,2.0,6.7,24,0.00,,,-99.99,FreeWX 2.04,2013-07-20 20:10:00,
2013-07-20 16:15:00,77.2,37.6,29.76,ESE,113,2.0,4.5,24,0.00,,,-99.99,FreeWX 2.04,2013-07-20 20:15:00,
2013-07-20 16:20:00,76.3,36.9,29.76,ESE,111,2.0,8.7,24,0.00,,,-99.99,FreeWX 2.04,2013-07-20 20:20:00,
2013-07-20 16:25:00,75.4,39.9,29.76,ESE,109,2.0,4.5,28,0.00,,,-99.99,FreeWX 2.04,2013-07-20 20:25:00,
2013-07-20 16:30:00,75.2,39.9,29.76,ESE,116,1.0,4.5,28,0.00,,,-99.99,FreeWX 2.04,2013-07-20 20:30:00,
2013-07-20 16:35:00,74.8,41.4,29.76,ESE,107,2.0,5.4,30,0.00,,,-99.99,FreeWX 2.04,2013-07-20 20:35:00,
2013-07-20 16:40:00,74.3,40.8,29.76,ENE,76,2.0,7.4,30,0.00,,,-99.99,FreeWX 2.04,2013-07-20 20:40:00,
2013-07-20 16:45:00,75.0,40.6,29.76,East,90,2.0,6.9,29,0.00,,,-99.99,FreeWX 2.04,2013-07-20 20:45:00,
2013-07-20 16:50:00,74.5,41.0,29.76,ESE,111,2.0,6.3,30,0.00,,,-99.99,FreeWX 2.04,2013-07-20 20:50:00,
2013-07-20 16:55:00,75.0,40.6,29.79,East,100,3.0,8.7,29,0.00,,,-99.99,FreeWX 2.04,2013-07-20 20:55:00,
2013-07-20 17:06:00,75.0,39.7,29.79,East,99,3.0,6.3,28,0.00,,,-99.99,FreeWX 2.04,2013-07-20 21:06:00,
2013-07-20 17:11:00,74.8,40.5,29.76,East,94,3.0,6.9,29,0.00,,,-99.99,FreeWX 2.04,2013-07-20 21:11:00,
2013-07-20 17:16:00,74.8,39.6,29.76,East,82,3.0,4.9,28,0.00,,,-99.99,FreeWX 2.04,2013-07-20 21:16:00,
2013-07-20 17:21:00,75.2,36.0,29.76,East,91,2.0,9.2,24,0.00,,,-99.99,FreeWX 2.04,2013-07-20 21:21:00,
2013-07-20 17:26:00,75.0,35.8,29.79,ESE,109,2.0,9.2,24,0.00,,,-99.99,FreeWX 2.04,2013-07-20 21:26:00,
2013-07-20 17:36:00,72.9,34.0,29.79,NE,50,2.0,6.3,24,0.00,,,-99.99,FreeWX 2.04,2013-07-20 21:36:00,
2013-07-20 17:41:00,72.1,33.3,29.79,North,8,2.0,5.4,24,0.00,,,-99.99,FreeWX 2.04,2013-07-20 21:41:00,
2013-07-20 17:46:00,72.1,34.3,29.79,North,353,1.0,6.7,25,0.00,,,-99.99,FreeWX 2.04,2013-07-20 21:46:00,
2013-07-20 17:56:00,72.9,34.0,29.79,North,-999,0.0,4.0,24,0.00,,,-99.99,FreeWX 2.04,2013-07-20 21:56:00,
2013-07-20 18:01:00,73.0,34.2,29.79,North,-999,0.0,7.4,24,0.00,,,-99.99,FreeWX 2.04,2013-07-20 22:01:00,
2013-07-20 18:06:00,72.9,34.0,29.79,ENE,71,1.0,4.5,24,0.00,,,-99.99,FreeWX 2.04,2013-07-20 22:06:00,
2013-07-20 18:11:00,72.1,34.3,29.79,ENE,70,2.0,9.2,25,0.00,,,-99.99,FreeWX 2.04,2013-07-20 22:11:00,
2013-07-20 18:16:00,71.4,33.8,29.79,East,80,2.0,10.5,25,0.00,,,-99.99,FreeWX 2.04,2013-07-20 22:16:00,
2013-07-20 18:21:00,71.2,33.6,29.79,East,88,1.0,4.5,25,0.00,,,-99.99,FreeWX 2.04,2013-07-20 22:21:00,
2013-07-20 18:32:00,71.2,33.6,29.79,East,101,1.0,4.9,25,0.00,,,-99.99,FreeWX 2.04,2013-07-20 22:32:00,
2013-07-20 18:37:00,70.7,34.2,29.79,ENE,72,1.0,4.5,26,0.00,,,-99.99,FreeWX 2.04,2013-07-20 22:37:00,
2013-07-20 18:42:00,71.1,35.4,29.79,NE,46,1.0,5.4,27,0.00,,,-99.99,FreeWX 2.04,2013-07-20 22:42:00,
2013-07-20 18:47:00,71.1,35.4,29.79,ENE,74,1.0,5.4,27,0.00,,,-99.99,FreeWX 2.04,2013-07-20 22:47:00,
2013-07-20 18:52:00,70.7,35.1,29.79,ESE,104,2.0,4.9,27,0.00,,,-99.99,FreeWX 2.04,2013-07-20 22:52:00,
2013-07-20 18:57:00,70.3,34.7,29.79,ESE,102,1.0,5.4,27,0.00,,,-99.99,FreeWX 2.04,2013-07-20 22:57:00,
2013-07-20 19:02:00,70.3,35.6,29.79,North,-999,0.0,4.0,28,0.00,,,-99.99,FreeWX 2.04,2013-07-20 23:02:00,
2013-07-20 19:07:00,70.2,35.6,29.79,North,-999,0.0,10.1,28,0.00,,,-99.99,FreeWX 2.04,2013-07-20 23:07:00,
2013-07-20 19:12:00,69.8,35.2,29.79,ESE,106,1.0,7.8,28,0.00,,,-99.99,FreeWX 2.04,2013-07-20 23:12:00,
2013-07-20 19:17:00,69.3,34.7,29.79,North,-999,0.0,0.0,28,0.00,,,-99.99,FreeWX 2.04,2013-07-20 23:17:00,
2013-07-20 19:27:00,69.4,36.7,29.79,North,-999,0.0,4.0,30,0.00,,,-99.99,FreeWX 2.04,2013-07-20 23:27:00,
2013-07-20 19:32:00,69.6,36.9,29.79,North,-999,0.0,5.8,30,0.00,,,-99.99,FreeWX 2.04,2013-07-20 23:32:00,
2013-07-20 19:37:00,70.7,38.7,29.82,North,-999,0.0,0.0,31,0.00,,,-99.99,FreeWX 2.04,2013-07-20 23:37:00,
2013-07-20 19:47:00,69.3,36.5,29.82,East,100,1.0,3.6,30,0.00,,,-99.99,FreeWX 2.04,2013-07-20 23:47:00,
2013-07-20 20:03:00,67.8,36.9,29.82,North,-999,0.0,0.0,32,0.00,,,-99.99,FreeWX 2.04,2013-07-21 00:03:00,
2013-07-20 20:13:00,67.6,36.7,29.82,North,-999,0.0,4.0,32,0.00,,,-99.99,FreeWX 2.04,2013-07-21 00:13:00,
2013-07-20 20:18:00,67.5,36.5,29.82,North,-999,0.0,4.5,32,0.00,,,-99.99,FreeWX 2.04,2013-07-21 00:18:00,
2013-07-20 20:23:00,67.1,37.0,29.82,North,-999,0.0,0.0,33,0.00,,,-99.99,FreeWX 2.04,2013-07-21 00:23:00,
2013-07-20 20:28:00,66.7,36.7,29.82,North,-999,0.0,0.0,33,0.00,,,-99.99,FreeWX 2.04,2013-07-21 00:28:00,
2013-07-20 20:39:00,66.4,36.3,29.82,North,-999,0.0,0.0,33,0.00,,,-99.99,FreeWX 2.04,2013-07-21 00:39:00,
2013-07-20 20:44:00,66.2,36.3,29.82,North,-999,0.0,0.0,33,0.00,,,-99.99,FreeWX 2.04,2013-07-21 00:44:00,
2013-07-20 20:54:00,65.7,35.8,29.82,North,-999,0.0,0.0,33,0.00,,,-99.99,FreeWX 2.04,2013-07-21 00:54:00,
2013-07-20 20:59:00,65.3,36.1,29.82,North,-999,0.0,0.0,34,0.00,,,-99.99,FreeWX 2.04,2013-07-21 00:59:00,
2013-07-20 21:04:00,64.9,36.0,29.82,North,-999,0.0,0.0,34,0.00,,,-99.99,FreeWX 2.04,2013-07-21 01:04:00,
2013-07-20 21:14:00,64.2,34.5,29.82,North,-999,0.0,0.0,33,0.00,,,-99.99,FreeWX 2.04,2013-07-21 01:14:00,
2013-07-20 21:19:00,63.7,34.0,29.82,North,-999,0.0,0.0,33,0.00,,,-99.99,FreeWX 2.04,2013-07-21 01:19:00,
2013-07-20 21:24:00,63.3,33.8,29.82,North,-999,0.0,0.0,33,0.00,,,-99.99,FreeWX 2.04,2013-07-21 01:24:00,
2013-07-20 21:35:00,62.6,32.4,29.82,North,-999,0.0,0.0,32,0.00,,,-99.99,FreeWX 2.04,2013-07-21 01:35:00,
2013-07-20 21:40:00,62.2,32.7,29.85,North,-999,0.0,0.0,33,0.00,,,-99.99,FreeWX 2.04,2013-07-21 01:40:00,
2013-07-20 21:50:00,61.5,32.9,29.85,North,-999,0.0,0.0,34,0.00,,,-99.99,FreeWX 2.04,2013-07-21 01:50:00,
2013-07-20 21:55:00,61.2,32.5,29.85,North,-999,0.0,0.0,34,0.00,,,-99.99,FreeWX 2.04,2013-07-21 01:55:00,
2013-07-20 22:00:00,61.0,32.4,29.85,North,-999,0.0,0.0,34,0.00,,,-99.99,FreeWX 2.04,2013-07-21 02:00:00,
2013-07-20 22:05:00,60.8,32.9,29.85,North,-999,0.0,0.0,35,0.00,,,-99.99,FreeWX 2.04,2013-07-21 02:05:00,